Sudbrooke, United Kingdom
Current Conditions -  °F | °C
As of 1:50 AM on Thursday 27 Nov 2014 (Local Time) from EGXP Reporting Station
Overcast Overcast  
Wind Chill: 45°   Ceiling: 300
Heat Index: 45°   Visibility: 0.06mi
Dew Point: 45°   Wind: 2mph
Humidity: 100%   Direction: 30°NNE
Pressure: 29.68"   Gusts: NA
Location:  53.27°N, 0.45°W
Report Text: EGXP 270150Z AUTO 03002KT 0100 // OVC003/// 07/07 Q1005
Loading
Personal Weather Stations






























Interactive Weather Map New forecast layout! Learn more

10-Day Weather Forecast

Advertisements
Track Severe Weather on mobile